sensor_id;sensor_type;location;lat;lon;timestamp;pressure;altitude;pressure_sealevel;temperature;humidity
12789;BME280;6458;42.710;23.192;2024-03-25T00:01:50;92619.84;;;4.46;100.00
12789;BME280;6458;42.710;23.192;2024-03-25T00:04:18;92610.50;;;4.45;100.00
12789;BME280;6458;42.710;23.192;2024-03-25T00:06:47;92598.63;;;4.42;100.00
12789;BME280;6458;42.710;23.192;2024-03-25T00:09:14;92599.09;;;4.50;100.00
12789;BME280;6458;42.710;23.192;2024-03-25T00:11:40;92591.97;;;4.57;100.00
12789;BME280;6458;42.710;23.192;2024-03-25T00:14:07;92585.31;;;4.53;100.00
12789;BME280;6458;42.710;23.192;2024-03-25T00:16:34;92590.16;;;4.59;100.00
12789;BME280;6458;42.710;23.192;2024-03-25T00:19:00;92578.78;;;4.64;100.00
12789;BME280;6458;42.710;23.192;2024-03-25T00:21:28;92569.84;;;4.73;100.00
12789;BME280;6458;42.710;23.192;2024-03-25T00:23:55;92552.56;;;4.77;100.00
12789;BME280;6458;42.710;23.192;2024-03-25T00:26:22;92557.59;;;4.40;100.00
12789;BME280;6458;42.710;23.192;2024-03-25T00:28:49;92560.00;;;4.25;100.00
12789;BME280;6458;42.710;23.192;2024-03-25T00:31:15;92565.41;;;4.18;100.00
12789;BME280;6458;42.710;23.192;2024-03-25T00:33:42;92562.66;;;4.23;100.00
12789;BME280;6458;42.710;23.192;2024-03-25T00:36:08;92568.34;;;4.30;100.00
12789;BME280;6458;42.710;23.192;2024-03-25T00:38:36;92564.13;;;4.29;100.00
12789;BME280;6458;42.710;23.192;2024-03-25T00:41:02;92566.00;;;4.44;100.00
12789;BME280;6458;42.710;23.192;2024-03-25T00:43:29;92567.00;;;4.60;100.00
12789;BME280;6458;42.710;23.192;2024-03-25T00:45:55;92568.16;;;4.53;100.00
12789;BME280;6458;42.710;23.192;2024-03-25T00:48:22;92576.41;;;4.60;100.00
12789;BME280;6458;42.710;23.192;2024-03-25T00:50:48;92570.25;;;4.64;100.00
12789;BME280;6458;42.710;23.192;2024-03-25T00:53:16;92567.13;;;4.57;100.00
12789;BME280;6458;42.710;23.192;2024-03-25T00:55:43;92550.00;;;4.58;100.00
12789;BME280;6458;42.710;23.192;2024-03-25T00:58:10;92549.31;;;4.54;100.00
12789;BME280;6458;42.710;23.192;2024-03-25T01:00:36;92541.78;;;4.50;100.00
12789;BME280;6458;42.710;23.192;2024-03-25T01:03:03;92544.34;;;4.50;100.00
12789;BME280;6458;42.710;23.192;2024-03-25T01:05:29;92540.25;;;4.46;100.00
12789;BME280;6458;42.710;23.192;2024-03-25T01:07:56;92532.44;;;4.49;100.00
12789;BME280;6458;42.710;23.192;2024-03-25T01:10:22;92519.78;;;4.44;100.00
12789;BME280;6458;42.710;23.192;2024-03-25T01:12:51;92507.31;;;4.55;100.00
12789;BME280;6458;42.710;23.192;2024-03-25T01:15:17;92511.66;;;4.53;100.00
12789;BME280;6458;42.710;23.192;2024-03-25T01:17:44;92508.97;;;4.56;100.00
12789;BME280;6458;42.710;23.192;2024-03-25T01:20:10;92517.22;;;4.63;100.00
12789;BME280;6458;42.710;23.192;2024-03-25T01:22:37;92514.22;;;4.72;100.00
12789;BME280;6458;42.710;23.192;2024-03-25T01:25:03;92520.75;;;4.79;100.00
12789;BME280;6458;42.710;23.192;2024-03-25T01:27:30;92522.84;;;4.71;100.00
12789;BME280;6458;42.710;23.192;2024-03-25T01:29:58;92525.91;;;4.79;100.00
12789;BME280;6458;42.710;23.192;2024-03-25T01:32:25;92529.16;;;4.83;100.00
12789;BME280;6458;42.710;23.192;2024-03-25T01:34:51;92536.50;;;4.91;100.00
12789;BME280;6458;42.710;23.192;2024-03-25T01:37:18;92526.56;;;5.02;100.00
12789;BME280;6458;42.710;23.192;2024-03-25T01:39:44;92532.66;;;4.99;100.00
12789;BME280;6458;42.710;23.192;2024-03-25T01:42:11;92541.69;;;5.08;100.00
12789;BME280;6458;42.710;23.192;2024-03-25T01:44:37;92540.16;;;5.04;100.00
12789;BME280;6458;42.710;23.192;2024-03-25T01:47:06;92540.28;;;5.01;100.00
12789;BME280;6458;42.710;23.192;2024-03-25T01:49:31;92549.06;;;4.97;100.00
12789;BME280;6458;42.710;23.192;2024-03-25T01:51:59;92552.69;;;4.74;100.00
12789;BME280;6458;42.710;23.192;2024-03-25T01:54:25;92552.56;;;4.58;100.00
12789;BME280;6458;42.710;23.192;2024-03-25T01:56:53;92559.75;;;4.50;100.00
12789;BME280;6458;42.710;23.192;2024-03-25T01:59:21;92565.44;;;4.37;100.00
12789;BME280;6458;42.710;23.192;2024-03-25T02:01:48;92558.41;;;4.22;100.00
12789;BME280;6458;42.710;23.192;2024-03-25T02:04:16;92568.44;;;4.08;100.00
12789;BME280;6458;42.710;23.192;2024-03-25T02:06:44;92572.19;;;4.01;100.00
12789;BME280;6458;42.710;23.192;2024-03-25T02:09:10;92565.44;;;3.98;100.00
12789;BME280;6458;42.710;23.192;2024-03-25T02:11:39;92569.16;;;3.91;100.00
12789;BME280;6458;42.710;23.192;2024-03-25T02:14:07;92563.97;;;3.92;100.00
12789;BME280;6458;42.710;23.192;2024-03-25T02:16:34;92557.34;;;3.87;100.00
12789;BME280;6458;42.710;23.192;2024-03-25T02:19:00;92551.41;;;3.86;100.00
12789;BME280;6458;42.710;23.192;2024-03-25T02:21:28;92551.13;;;3.92;100.00
12789;BME280;6458;42.710;23.192;2024-03-25T02:23:56;92554.25;;;3.99;100.00
12789;BME280;6458;42.710;23.192;2024-03-25T02:26:28;92560.88;;;4.05;100.00
12789;BME280;6458;42.710;23.192;2024-03-25T02:28:54;92558.44;;;4.02;100.00
12789;BME280;6458;42.710;23.192;2024-03-25T02:31:21;92562.47;;;4.07;100.00
12789;BME280;6458;42.710;23.192;2024-03-25T02:33:47;92558.63;;;4.17;100.00
12789;BME280;6458;42.710;23.192;2024-03-25T02:36:14;92566.19;;;4.21;100.00
12789;BME280;6458;42.710;23.192;2024-03-25T02:38:40;92566.75;;;4.27;100.00
12789;BME280;6458;42.710;23.192;2024-03-25T02:41:07;92554.69;;;4.29;100.00
12789;BME280;6458;42.710;23.192;2024-03-25T02:43:35;92559.75;;;4.31;100.00
12789;BME280;6458;42.710;23.192;2024-03-25T02:46:02;92566.59;;;4.30;100.00
12789;BME280;6458;42.710;23.192;2024-03-25T02:48:28;92570.34;;;4.23;100.00
12789;BME280;6458;42.710;23.192;2024-03-25T02:50:55;92591.00;;;4.20;100.00
12789;BME280;6458;42.710;23.192;2024-03-25T02:53:21;92578.31;;;4.17;100.00
12789;BME280;6458;42.710;23.192;2024-03-25T02:55:48;92592.66;;;4.21;100.00
12789;BME280;6458;42.710;23.192;2024-03-25T02:58:14;92592.16;;;4.13;100.00
12789;BME280;6458;42.710;23.192;2024-03-25T03:00:42;92582.31;;;4.04;100.00
12789;BME280;6458;42.710;23.192;2024-03-25T03:03:08;92581.84;;;3.94;100.00
12789;BME280;6458;42.710;23.192;2024-03-25T03:05:35;92578.53;;;3.92;100.00
12789;BME280;6458;42.710;23.192;2024-03-25T03:08:01;92577.38;;;3.79;100.00
12789;BME280;6458;42.710;23.192;2024-03-25T03:10:28;92600.34;;;3.82;100.00
12789;BME280;6458;42.710;23.192;2024-03-25T03:12:54;92590.78;;;3.85;100.00
12789;BME280;6458;42.710;23.192;2024-03-25T03:15:21;92575.25;;;3.88;100.00
12789;BME280;6458;42.710;23.192;2024-03-25T03:17:48;92568.25;;;3.92;100.00
12789;BME280;6458;42.710;23.192;2024-03-25T03:20:15;92565.88;;;3.87;100.00
12789;BME280;6458;42.710;23.192;2024-03-25T03:22:41;92573.31;;;3.93;100.00
12789;BME280;6458;42.710;23.192;2024-03-25T03:25:08;92586.53;;;3.84;100.00
12789;BME280;6458;42.710;23.192;2024-03-25T03:27:34;92595.13;;;3.83;100.00
12789;BME280;6458;42.710;23.192;2024-03-25T03:30:01;92601.03;;;3.85;100.00
12789;BME280;6458;42.710;23.192;2024-03-25T03:32:26;92595.69;;;3.90;100.00
12789;BME280;6458;42.710;23.192;2024-03-25T03:34:55;92596.53;;;3.90;100.00
12789;BME280;6458;42.710;23.192;2024-03-25T03:37:21;92607.66;;;3.91;100.00
12789;BME280;6458;42.710;23.192;2024-03-25T03:39:47;92607.66;;;3.91;100.00
12789;BME280;6458;42.710;23.192;2024-03-25T03:42:13;92616.16;;;3.91;100.00
12789;BME280;6458;42.710;23.192;2024-03-25T03:44:40;92612.94;;;3.86;100.00
12789;BME280;6458;42.710;23.192;2024-03-25T03:47:06;92616.34;;;3.87;100.00
12789;BME280;6458;42.710;23.192;2024-03-25T03:49:33;92621.03;;;3.77;100.00
12789;BME280;6458;42.710;23.192;2024-03-25T03:52:00;92621.03;;;3.77;100.00
12789;BME280;6458;42.710;23.192;2024-03-25T03:54:27;92617.56;;;3.78;100.00
12789;BME280;6458;42.710;23.192;2024-03-25T03:56:53;92621.56;;;3.85;100.00
12789;BME280;6458;42.710;23.192;2024-03-25T03:59:20;92627.81;;;3.78;100.00
12789;BME280;6458;42.710;23.192;2024-03-25T04:01:46;92633.97;;;3.74;100.00
12789;BME280;6458;42.710;23.192;2024-03-25T04:04:14;92642.38;;;3.78;100.00
12789;BME280;6458;42.710;23.192;2024-03-25T04:06:40;92645.50;;;3.84;100.00
12789;BME280;6458;42.710;23.192;2024-03-25T04:09:08;92655.72;;;3.86;100.00
12789;BME280;6458;42.710;23.192;2024-03-25T04:11:35;92648.16;;;3.83;100.00
12789;BME280;6458;42.710;23.192;2024-03-25T04:14:02;92638.81;;;3.82;100.00
12789;BME280;6458;42.710;23.192;2024-03-25T04:16:28;92638.84;;;3.80;100.00
12789;BME280;6458;42.710;23.192;2024-03-25T04:18:56;92653.84;;;3.69;100.00
12789;BME280;6458;42.710;23.192;2024-03-25T04:21:22;92647.97;;;3.65;100.00
12789;BME280;6458;42.710;23.192;2024-03-25T04:23:49;92660.06;;;3.63;100.00
12789;BME280;6458;42.710;23.192;2024-03-25T04:26:17;92664.47;;;3.60;100.00
12789;BME280;6458;42.710;23.192;2024-03-25T04:28:44;92658.69;;;3.55;100.00
12789;BME280;6458;42.710;23.192;2024-03-25T04:31:10;92655.28;;;3.54;100.00
12789;BME280;6458;42.710;23.192;2024-03-25T04:33:37;92661.25;;;3.55;100.00
12789;BME280;6458;42.710;23.192;2024-03-25T04:36:03;92690.34;;;3.54;100.00
12789;BME280;6458;42.710;23.192;2024-03-25T04:38:30;92686.28;;;3.48;100.00
12789;BME280;6458;42.710;23.192;2024-03-25T04:40:56;92701.59;;;3.49;100.00
12789;BME280;6458;42.710;23.192;2024-03-25T04:43:24;92697.13;;;3.55;100.00
12789;BME280;6458;42.710;23.192;2024-03-25T04:45:50;92703.81;;;3.59;100.00
12789;BME280;6458;42.710;23.192;2024-03-25T04:48:16;92702.16;;;3.58;100.00
12789;BME280;6458;42.710;23.192;2024-03-25T04:50:42;92703.09;;;3.55;100.00
12789;BME280;6458;42.710;23.192;2024-03-25T04:53:08;92707.28;;;3.58;100.00
12789;BME280;6458;42.710;23.192;2024-03-25T04:55:34;92708.94;;;3.59;100.00
12789;BME280;6458;42.710;23.192;2024-03-25T04:58:00;92705.50;;;3.60;100.00
12789;BME280;6458;42.710;23.192;2024-03-25T05:00:27;92698.44;;;3.65;100.00
12789;BME280;6458;42.710;23.192;2024-03-25T05:02:53;92705.03;;;3.72;100.00
12789;BME280;6458;42.710;23.192;2024-03-25T05:05:19;92713.09;;;3.83;100.00
12789;BME280;6458;42.710;23.192;2024-03-25T05:07:45;92721.59;;;3.85;100.00
12789;BME280;6458;42.710;23.192;2024-03-25T05:10:11;92714.53;;;3.90;100.00
12789;BME280;6458;42.710;23.192;2024-03-25T05:12:38;92709.84;;;4.00;100.00
12789;BME280;6458;42.710;23.192;2024-03-25T05:15:04;92713.91;;;4.06;100.00
12789;BME280;6458;42.710;23.192;2024-03-25T05:17:32;92717.78;;;4.16;100.00
12789;BME280;6458;42.710;23.192;2024-03-25T05:19:58;92711.63;;;4.20;100.00
12789;BME280;6458;42.710;23.192;2024-03-25T05:22:24;92714.81;;;4.25;100.00
12789;BME280;6458;42.710;23.192;2024-03-25T05:24:50;92714.69;;;4.28;100.00
12789;BME280;6458;42.710;23.192;2024-03-25T05:27:16;92733.13;;;4.38;100.00
12789;BME280;6458;42.710;23.192;2024-03-25T05:29:42;92721.78;;;4.44;100.00
12789;BME280;6458;42.710;23.192;2024-03-25T05:32:08;92725.44;;;4.38;100.00
12789;BME280;6458;42.710;23.192;2024-03-25T05:34:35;92728.91;;;4.37;100.00
12789;BME280;6458;42.710;23.192;2024-03-25T05:37:01;92732.69;;;4.49;100.00
12789;BME280;6458;42.710;23.192;2024-03-25T05:39:27;92734.50;;;4.47;100.00
12789;BME280;6458;42.710;23.192;2024-03-25T05:41:53;92745.41;;;4.52;100.00
12789;BME280;6458;42.710;23.192;2024-03-25T05:44:18;92751.16;;;4.57;100.00
12789;BME280;6458;42.710;23.192;2024-03-25T05:46:44;92759.47;;;4.84;100.00
12789;BME280;6458;42.710;23.192;2024-03-25T05:49:10;92769.78;;;5.03;100.00
12789;BME280;6458;42.710;23.192;2024-03-25T05:51:38;92759.69;;;5.38;100.00
12789;BME280;6458;42.710;23.192;2024-03-25T05:54:04;92761.63;;;5.51;100.00
12789;BME280;6458;42.710;23.192;2024-03-25T05:56:30;92770.22;;;5.71;100.00
12789;BME280;6458;42.710;23.192;2024-03-25T05:58:56;92765.91;;;5.71;100.00
12789;BME280;6458;42.710;23.192;2024-03-25T06:01:22;92777.50;;;5.61;100.00
12789;BME280;6458;42.710;23.192;2024-03-25T06:03:48;92766.09;;;5.48;100.00
12789;BME280;6458;42.710;23.192;2024-03-25T06:06:14;92772.00;;;5.69;100.00
12789;BME280;6458;42.710;23.192;2024-03-25T06:08:41;92770.19;;;5.90;100.00
12789;BME280;6458;42.710;23.192;2024-03-25T06:11:07;92778.56;;;5.95;100.00
12789;BME280;6458;42.710;23.192;2024-03-25T06:13:33;92777.06;;;6.08;100.00
12789;BME280;6458;42.710;23.192;2024-03-25T06:15:59;92776.69;;;6.35;100.00
12789;BME280;6458;42.710;23.192;2024-03-25T06:18:25;92781.41;;;6.61;100.00
12789;BME280;6458;42.710;23.192;2024-03-25T06:20:51;92788.38;;;6.94;97.36
12789;BME280;6458;42.710;23.192;2024-03-25T06:23:24;92780.97;;;7.21;94.59
12789;BME280;6458;42.710;23.192;2024-03-25T06:25:53;92789.13;;;7.13;91.16
12789;BME280;6458;42.710;23.192;2024-03-25T06:28:19;92797.94;;;6.57;93.02
12789;BME280;6458;42.710;23.192;2024-03-25T06:30:45;92804.63;;;6.25;97.31
12789;BME280;6458;42.710;23.192;2024-03-25T06:33:33;92804.28;;;6.14;100.00
12789;BME280;6458;42.710;23.192;2024-03-25T06:36:18;92813.03;;;5.91;100.00
12789;BME280;6458;42.710;23.192;2024-03-25T06:38:47;92812.72;;;5.98;100.00
12789;BME280;6458;42.710;23.192;2024-03-25T06:41:15;92815.22;;;6.72;100.00
12789;BME280;6458;42.710;23.192;2024-03-25T06:43:41;92820.50;;;7.39;96.72
12789;BME280;6458;42.710;23.192;2024-03-25T06:46:08;92819.88;;;7.51;90.75
12789;BME280;6458;42.710;23.192;2024-03-25T06:48:37;92826.84;;;7.82;86.50
12789;BME280;6458;42.710;23.192;2024-03-25T06:51:06;92840.47;;;7.69;87.25
12789;BME280;6458;42.710;23.192;2024-03-25T06:53:37;92833.38;;;8.21;84.25
12789;BME280;6458;42.710;23.192;2024-03-25T06:56:03;92838.44;;;8.07;82.41
12789;BME280;6458;42.710;23.192;2024-03-25T06:58:31;92843.13;;;8.48;82.42
12789;BME280;6458;42.710;23.192;2024-03-25T07:01:04;92846.97;;;8.56;79.18
12789;BME280;6458;42.710;23.192;2024-03-25T07:03:30;92841.22;;;8.20;79.14
12789;BME280;6458;42.710;23.192;2024-03-25T07:05:56;92843.06;;;7.84;79.37
12789;BME280;6458;42.710;23.192;2024-03-25T07:08:22;92854.38;;;8.31;79.25
12789;BME280;6458;42.710;23.192;2024-03-25T07:10:48;92853.56;;;8.62;78.62
12789;BME280;6458;42.710;23.192;2024-03-25T07:13:14;92852.22;;;8.71;75.25
12789;BME280;6458;42.710;23.192;2024-03-25T07:15:43;92854.06;;;9.15;74.90
12789;BME280;6458;42.710;23.192;2024-03-25T07:18:09;92850.72;;;9.71;74.79
12789;BME280;6458;42.710;23.192;2024-03-25T07:20:35;92855.63;;;10.05;71.08
12789;BME280;6458;42.710;23.192;2024-03-25T07:23:09;92866.00;;;10.05;69.36
12789;BME280;6458;42.710;23.192;2024-03-25T07:25:37;92859.13;;;10.18;67.25
12789;BME280;6458;42.710;23.192;2024-03-25T07:28:04;92852.84;;;10.22;67.33
12789;BME280;6458;42.710;23.192;2024-03-25T07:30:30;92858.41;;;10.16;67.10
12789;BME280;6458;42.710;23.192;2024-03-25T07:32:58;92856.56;;;10.32;66.87
12789;BME280;6458;42.710;23.192;2024-03-25T07:35:42;92861.50;;;10.64;65.56
12789;BME280;6458;42.710;23.192;2024-03-25T07:38:12;92862.16;;;10.95;64.79
12789;BME280;6458;42.710;23.192;2024-03-25T07:40:48;92863.66;;;10.57;62.82
12789;BME280;6458;42.710;23.192;2024-03-25T07:43:15;92872.19;;;10.59;64.40
12789;BME280;6458;42.710;23.192;2024-03-25T07:45:41;92859.13;;;10.88;64.18
12789;BME280;6458;42.710;23.192;2024-03-25T07:48:09;92859.75;;;11.31;62.25
12789;BME280;6458;42.710;23.192;2024-03-25T07:50:35;92858.69;;;11.21;62.83
12789;BME280;6458;42.710;23.192;2024-03-25T07:53:01;92867.50;;;10.79;63.12
12789;BME280;6458;42.710;23.192;2024-03-25T07:55:27;92865.97;;;11.16;62.68
12789;BME280;6458;42.710;23.192;2024-03-25T07:57:53;92872.13;;;11.41;62.83
12789;BME280;6458;42.710;23.192;2024-03-25T08:00:19;92872.41;;;11.23;59.28
12789;BME280;6458;42.710;23.192;2024-03-25T08:02:45;92879.19;;;10.99;58.77
12789;BME280;6458;42.710;23.192;2024-03-25T08:05:13;92882.47;;;10.88;61.79
12789;BME280;6458;42.710;23.192;2024-03-25T08:07:39;92883.69;;;10.41;61.17
12789;BME280;6458;42.710;23.192;2024-03-25T08:10:05;92889.44;;;10.32;63.22
12789;BME280;6458;42.710;23.192;2024-03-25T08:12:32;92894.41;;;10.06;64.46
12789;BME280;6458;42.710;23.192;2024-03-25T08:14:58;92897.78;;;9.64;65.67
12789;BME280;6458;42.710;23.192;2024-03-25T08:17:24;92901.00;;;10.26;64.03
12789;BME280;6458;42.710;23.192;2024-03-25T08:19:51;92903.34;;;11.13;60.90
12789;BME280;6458;42.710;23.192;2024-03-25T08:22:18;92897.91;;;11.44;60.41
12789;BME280;6458;42.710;23.192;2024-03-25T08:24:44;92902.47;;;12.18;59.62
12789;BME280;6458;42.710;23.192;2024-03-25T08:27:10;92903.63;;;12.76;54.53
12789;BME280;6458;42.710;23.192;2024-03-25T08:29:36;92905.91;;;12.19;53.58
12789;BME280;6458;42.710;23.192;2024-03-25T08:32:02;92914.38;;;12.72;54.20
12789;BME280;6458;42.710;23.192;2024-03-25T08:34:28;92906.22;;;12.89;53.29
12789;BME280;6458;42.710;23.192;2024-03-25T08:36:54;92916.25;;;13.07;54.21
12789;BME280;6458;42.710;23.192;2024-03-25T08:39:22;92903.44;;;12.17;53.61
12789;BME280;6458;42.710;23.192;2024-03-25T08:41:48;92915.16;;;11.97;53.87
12789;BME280;6458;42.710;23.192;2024-03-25T08:44:14;92913.78;;;11.39;54.56
12789;BME280;6458;42.710;23.192;2024-03-25T08:46:40;92924.75;;;10.76;56.48
12789;BME280;6458;42.710;23.192;2024-03-25T08:49:06;92928.88;;;10.93;56.15
12789;BME280;6458;42.710;23.192;2024-03-25T08:51:32;92917.06;;;11.55;55.43
12789;BME280;6458;42.710;23.192;2024-03-25T08:53:58;92921.41;;;11.95;56.00
12789;BME280;6458;42.710;23.192;2024-03-25T08:56:25;92918.81;;;11.55;57.24
12789;BME280;6458;42.710;23.192;2024-03-25T08:58:51;92914.84;;;11.49;56.80
12789;BME280;6458;42.710;23.192;2024-03-25T09:01:17;92930.50;;;11.08;56.75
12789;BME280;6458;42.710;23.192;2024-03-25T09:03:43;92925.19;;;10.82;56.88
12789;BME280;6458;42.710;23.192;2024-03-25T09:06:09;92923.25;;;10.72;57.43
12789;BME280;6458;42.710;23.192;2024-03-25T09:08:35;92928.41;;;10.44;56.79
12789;BME280;6458;42.710;23.192;2024-03-25T09:11:01;92928.59;;;10.27;57.25
12789;BME280;6458;42.710;23.192;2024-03-25T09:13:32;92927.56;;;10.30;58.04
12789;BME280;6458;42.710;23.192;2024-03-25T09:15:58;92932.31;;;9.93;59.79
12789;BME280;6458;42.710;23.192;2024-03-25T09:18:24;92932.13;;;9.82;61.57
12789;BME280;6458;42.710;23.192;2024-03-25T09:20:50;92943.25;;;9.98;61.55
12789;BME280;6458;42.710;23.192;2024-03-25T09:23:16;92934.44;;;9.72;61.62
12789;BME280;6458;42.710;23.192;2024-03-25T09:25:51;92946.13;;;9.93;63.26
12789;BME280;6458;42.710;23.192;2024-03-25T09:28:17;92947.66;;;10.69;61.03
12789;BME280;6458;42.710;23.192;2024-03-25T09:30:45;92941.66;;;10.96;57.60
12789;BME280;6458;42.710;23.192;2024-03-25T09:33:11;92947.34;;;10.74;58.09
12789;BME280;6458;42.710;23.192;2024-03-25T09:35:37;92947.91;;;10.64;58.78
12789;BME280;6458;42.710;23.192;2024-03-25T09:38:03;92949.69;;;10.78;59.26
12789;BME280;6458;42.710;23.192;2024-03-25T09:40:29;92939.44;;;11.04;57.80
12789;BME280;6458;42.710;23.192;2024-03-25T09:42:56;92936.25;;;10.57;56.73
12789;BME280;6458;42.710;23.192;2024-03-25T09:45:24;92944.69;;;10.32;58.90
12789;BME280;6458;42.710;23.192;2024-03-25T09:47:53;92944.50;;;10.50;60.93
12789;BME280;6458;42.710;23.192;2024-03-25T09:50:21;92944.16;;;10.41;58.14
12789;BME280;6458;42.710;23.192;2024-03-25T09:52:47;92943.19;;;10.14;59.01
12789;BME280;6458;42.710;23.192;2024-03-25T09:55:13;92938.13;;;10.27;58.10
12789;BME280;6458;42.710;23.192;2024-03-25T09:57:40;92946.16;;;10.36;59.77
12789;BME280;6458;42.710;23.192;2024-03-25T10:00:08;92942.19;;;10.31;56.68
12789;BME280;6458;42.710;23.192;2024-03-25T10:02:35;92941.34;;;10.16;58.45
12789;BME280;6458;42.710;23.192;2024-03-25T10:05:04;92947.78;;;9.94;57.77
12789;BME280;6458;42.710;23.192;2024-03-25T10:07:30;92941.22;;;10.17;56.82
12789;BME280;6458;42.710;23.192;2024-03-25T10:09:56;92941.22;;;10.17;57.13
12789;BME280;6458;42.710;23.192;2024-03-25T10:12:23;92926.97;;;10.10;58.06
12789;BME280;6458;42.710;23.192;2024-03-25T10:14:49;92919.56;;;10.04;54.60
12789;BME280;6458;42.710;23.192;2024-03-25T10:17:15;92934.38;;;10.02;55.47
12789;BME280;6458;42.710;23.192;2024-03-25T10:19:41;92934.88;;;10.09;54.67
12789;BME280;6458;42.710;23.192;2024-03-25T10:22:09;92933.81;;;9.97;53.80
12789;BME280;6458;42.710;23.192;2024-03-25T10:24:39;92932.72;;;10.01;54.91
12789;BME280;6458;42.710;23.192;2024-03-25T10:27:05;92930.97;;;10.59;56.89
12789;BME280;6458;42.710;23.192;2024-03-25T10:29:31;92921.41;;;10.74;53.63
12789;BME280;6458;42.710;23.192;2024-03-25T10:32:01;92919.50;;;10.63;53.45
12789;BME280;6458;42.710;23.192;2024-03-25T10:34:27;92928.75;;;10.53;53.03
12789;BME280;6458;42.710;23.192;2024-03-25T10:36:58;92937.28;;;10.96;55.08
12789;BME280;6458;42.710;23.192;2024-03-25T10:39:31;92932.38;;;11.33;55.73
12789;BME280;6458;42.710;23.192;2024-03-25T10:41:58;92931.13;;;11.78;53.14
12789;BME280;6458;42.710;23.192;2024-03-25T10:44:26;92917.88;;;11.96;50.83
12789;BME280;6458;42.710;23.192;2024-03-25T10:46:56;92917.66;;;11.86;50.27
12789;BME280;6458;42.710;23.192;2024-03-25T10:49:31;92935.19;;;11.43;52.17
12789;BME280;6458;42.710;23.192;2024-03-25T10:51:59;92944.31;;;10.81;53.89
12789;BME280;6458;42.710;23.192;2024-03-25T10:54:26;92954.38;;;10.72;54.77
12789;BME280;6458;42.710;23.192;2024-03-25T10:56:54;92938.69;;;10.87;54.21
12789;BME280;6458;42.710;23.192;2024-03-25T10:59:22;92931.19;;;10.41;53.41
12789;BME280;6458;42.710;23.192;2024-03-25T11:01:48;92943.94;;;10.73;55.90
12789;BME280;6458;42.710;23.192;2024-03-25T11:04:14;92936.22;;;10.72;54.33
12789;BME280;6458;42.710;23.192;2024-03-25T11:06:41;92936.16;;;10.59;55.91
12789;BME280;6458;42.710;23.192;2024-03-25T11:09:07;92925.63;;;10.48;55.25
12789;BME280;6458;42.710;23.192;2024-03-25T11:11:35;92938.47;;;10.20;55.84
12789;BME280;6458;42.710;23.192;2024-03-25T11:14:04;92934.53;;;9.85;58.11
12789;BME280;6458;42.710;23.192;2024-03-25T11:16:30;92943.03;;;9.42;63.18
12789;BME280;6458;42.710;23.192;2024-03-25T11:19:00;92953.03;;;9.02;68.15
12789;BME280;6458;42.710;23.192;2024-03-25T11:21:28;92965.56;;;8.94;71.74
12789;BME280;6458;42.710;23.192;2024-03-25T11:23:54;92967.41;;;8.92;69.64
12789;BME280;6458;42.710;23.192;2024-03-25T11:26:21;92967.56;;;8.89;70.21
12789;BME280;6458;42.710;23.192;2024-03-25T11:28:47;92975.00;;;8.95;71.35
12789;BME280;6458;42.710;23.192;2024-03-25T11:31:15;92979.47;;;8.76;69.59
12789;BME280;6458;42.710;23.192;2024-03-25T11:33:41;92975.41;;;8.72;71.04
12789;BME280;6458;42.710;23.192;2024-03-25T11:36:23;92977.50;;;8.97;72.24
12789;BME280;6458;42.710;23.192;2024-03-25T11:38:57;92973.69;;;9.34;71.74
12789;BME280;6458;42.710;23.192;2024-03-25T11:41:24;92967.81;;;9.77;69.11
12789;BME280;6458;42.710;23.192;2024-03-25T11:43:50;92976.22;;;10.10;66.88
12789;BME280;6458;42.710;23.192;2024-03-25T11:46:18;92970.34;;;9.78;64.31
12789;BME280;6458;42.710;23.192;2024-03-25T11:48:44;92970.09;;;9.67;64.86
12789;BME280;6458;42.710;23.192;2024-03-25T11:51:12;92973.69;;;9.94;64.97
12789;BME280;6458;42.710;23.192;2024-03-25T11:53:39;92965.31;;;10.19;61.32
12789;BME280;6458;42.710;23.192;2024-03-25T11:56:06;92955.63;;;10.66;61.50
12789;BME280;6458;42.710;23.192;2024-03-25T11:58:32;92968.56;;;10.80;58.40
12789;BME280;6458;42.710;23.192;2024-03-25T12:00:58;92969.56;;;10.78;57.62
12789;BME280;6458;42.710;23.192;2024-03-25T12:03:24;92968.06;;;10.47;56.29
12789;BME280;6458;42.710;23.192;2024-03-25T12:05:50;92968.56;;;10.23;57.38
12789;BME280;6458;42.710;23.192;2024-03-25T12:08:16;92966.19;;;10.34;61.33
12789;BME280;6458;42.710;23.192;2024-03-25T12:10:44;92964.16;;;9.95;56.98
12789;BME280;6458;42.710;23.192;2024-03-25T12:13:28;92967.88;;;9.61;57.57
12789;BME280;6458;42.710;23.192;2024-03-25T12:15:54;92973.75;;;9.02;60.64
12789;BME280;6458;42.710;23.192;2024-03-25T12:18:20;92965.47;;;9.12;61.23
12789;BME280;6458;42.710;23.192;2024-03-25T12:20:46;92963.22;;;9.21;60.56
12789;BME280;6458;42.710;23.192;2024-03-25T12:23:13;92967.59;;;9.35;60.43
12789;BME280;6458;42.710;23.192;2024-03-25T12:25:39;92947.25;;;9.59;61.40
12789;BME280;6458;42.710;23.192;2024-03-25T12:28:09;92944.16;;;9.83;58.75
12789;BME280;6458;42.710;23.192;2024-03-25T12:30:49;92952.06;;;10.10;55.98
12789;BME280;6458;42.710;23.192;2024-03-25T12:33:15;92936.53;;;10.10;55.67
12789;BME280;6458;42.710;23.192;2024-03-25T12:35:41;92955.72;;;10.36;56.57
12789;BME280;6458;42.710;23.192;2024-03-25T12:38:07;92948.41;;;10.42;54.97
12789;BME280;6458;42.710;23.192;2024-03-25T12:40:34;92957.03;;;10.29;53.87
12789;BME280;6458;42.710;23.192;2024-03-25T12:43:00;92965.09;;;10.08;54.71
12789;BME280;6458;42.710;23.192;2024-03-25T12:45:27;92976.31;;;10.23;53.71
12789;BME280;6458;42.710;23.192;2024-03-25T12:47:53;92966.97;;;10.20;55.61
12789;BME280;6458;42.710;23.192;2024-03-25T12:50:19;92975.00;;;10.02;58.72
12789;BME280;6458;42.710;23.192;2024-03-25T12:52:45;92977.69;;;10.14;59.35
12789;BME280;6458;42.710;23.192;2024-03-25T12:55:11;92959.19;;;10.06;56.95
12789;BME280;6458;42.710;23.192;2024-03-25T12:57:37;92968.75;;;9.75;57.99
12789;BME280;6458;42.710;23.192;2024-03-25T13:03:23;92975.16;;;9.98;56.64
12789;BME280;6458;42.710;23.192;2024-03-25T13:05:49;92963.47;;;10.21;55.10